^^
Your Local Weather - Clay, NY Station Historical Data
Daily Summary for January 11, 2018 Units:  Both    English   Metric
« Previous Day
Next Day »
Daily Weekly Monthly Yearly Custom
  High: Low: Average:
Temperature: 54.5 °F /  12.5 °C 38.0 °F /  3.3 °C 48.3 °F /  9.1 °C
Dew Point: 48.5 °F /  9.2 °C 29.8 °F /  -1.2 °C 39.5 °F /  4.2 °C
Humidity: 88% 61% 72%
Wind Speed: 9.0mph /  14.5km/h - 2.8mph /  4.5km/h
Wind Gust: 16.0mph /  25.7km/h - -
Wind- - South
Pressure: 30.14 in /  1020.5 hPa 29.90 in /  1012.4 hPa -
Precipitation: 0.08 in /  2.03 mm    
Historical Graphs
 
 
Tabular Data for January 11, 2018
Time Temperature Dew Point Pressure Wind Wind Speed Wind Gust Humidity Rainfall Rate (Hourly) solar
00:03 40.4 °F /  4.7 °C 29.9 °F /  -1.2 °C 30.13in /  1020.2hPa South 2.0mph /  3.2km/h 2.0mph /  3.2km/h 66% 0.00in /  0mm 0 W/m2
00:12 40.3 °F /  4.6 °C 30.2 °F /  -1 °C 30.14in /  1020.5hPa South 1.0mph /  1.6km/h 1.0mph /  1.6km/h 67% 0.00in /  0mm 0 W/m2
00:18 39.9 °F /  4.4 °C 29.8 °F /  -1.2 °C 30.14in /  1020.5hPa Calm   1.0mph /  1.6km/h 67% 0.00in /  0mm 0 W/m2
00:24 39.4 °F /  4.1 °C 30.1 °F /  -1.1 °C 30.13in /  1020.2hPa Calm     69% 0.00in /  0mm 0 W/m2
00:29 38.8 °F /  3.8 °C 29.8 °F /  -1.2 °C 30.13in /  1020.2hPa Calm     70% 0.00in /  0mm 0 W/m2
00:46 38.7 °F /  3.7 °C 30.1 °F /  -1.1 °C 30.13in /  1020.2hPa Calm     71% 0.00in /  0mm 0 W/m2
00:52 38.9 °F /  3.8 °C 29.9 °F /  -1.2 °C 30.13in /  1020.2hPa Calm     70% 0.00in /  0mm 0 W/m2
01:14 39.0 °F /  3.9 °C 30.0 °F /  -1.1 °C 30.13in /  1020.2hPa Calm   1.0mph /  1.6km/h 70% 0.00in /  0mm 0 W/m2
01:19 38.9 °F /  3.8 °C 30.3 °F /  -0.9 °C 30.13in /  1020.2hPa Calm     71% 0.00in /  0mm 0 W/m2
01:26 38.9 °F /  3.8 °C 30.3 °F /  -0.9 °C 30.13in /  1020.2hPa Calm   1.0mph /  1.6km/h 71% 0.00in /  0mm 0 W/m2
01:32 38.8 °F /  3.8 °C 30.2 °F /  -1 °C 30.13in /  1020.2hPa Calm     71% 0.00in /  0mm 0 W/m2
01:38 38.8 °F /  3.8 °C 30.2 °F /  -1 °C 30.13in /  1020.2hPa Calm   1.0mph /  1.6km/h 71% 0.00in /  0mm 0 W/m2
01:43 38.7 °F /  3.7 °C 30.4 °F /  -0.9 °C 30.13in /  1020.2hPa Calm   2.0mph /  3.2km/h 72% 0.00in /  0mm 0 W/m2
01:49 39.0 °F /  3.9 °C 30.4 °F /  -0.9 °C 30.13in /  1020.2hPa South 1.0mph /  1.6km/h 1.0mph /  1.6km/h 71% 0.00in /  0mm 0 W/m2
01:58 39.2 °F /  4 °C 30.6 °F /  -0.8 °C 30.13in /  1020.2hPa South 1.0mph /  1.6km/h 1.0mph /  1.6km/h 71% 0.00in /  0mm 0 W/m2
02:04 39.1 °F /  3.9 °C 30.5 °F /  -0.8 °C 30.14in /  1020.5hPa Calm     71% 0.00in /  0mm 0 W/m2
02:09 38.9 °F /  3.8 °C 30.3 °F /  -0.9 °C 30.14in /  1020.5hPa Calm     71% 0.00in /  0mm 0 W/m2
02:22 39.5 °F /  4.2 °C 30.5 °F /  -0.8 °C 30.14in /  1020.5hPa Calm     70% 0.00in /  0mm 0 W/m2
02:28 40.0 °F /  4.4 °C 31.0 °F /  -0.6 °C 30.13in /  1020.2hPa SSE 1.0mph /  1.6km/h 4.0mph /  6.4km/h 70% 0.00in /  0mm 0 W/m2
02:34 40.2 °F /  4.6 °C 30.8 °F /  -0.7 °C 30.13in /  1020.2hPa SSE 2.0mph /  3.2km/h 3.0mph /  4.8km/h 69% 0.00in /  0mm 0 W/m2
02:40 40.2 °F /  4.6 °C 30.8 °F /  -0.7 °C 30.13in /  1020.2hPa SSE 1.0mph /  1.6km/h 1.0mph /  1.6km/h 69% 0.00in /  0mm 0 W/m2
02:45 40.2 °F /  4.6 °C 30.8 °F /  -0.7 °C 30.13in /  1020.2hPa SSE 1.0mph /  1.6km/h 1.0mph /  1.6km/h 69% 0.00in /  0mm 0 W/m2
02:52 39.7 °F /  4.3 °C 30.7 °F /  -0.7 °C 30.13in /  1020.2hPa SSE 1.0mph /  1.6km/h 1.0mph /  1.6km/h 70% 0.00in /  0mm 0 W/m2
02:58 40.1 °F /  4.5 °C 31.1 °F /  -0.5 °C 30.13in /  1020.2hPa Calm   2.0mph /  3.2km/h 70% 0.00in /  0mm 0 W/m2
03:04 40.3 °F /  4.6 °C 31.3 °F /  -0.4 °C 30.12in /  1019.9hPa SSE 1.0mph /  1.6km/h 1.0mph /  1.6km/h 70% 0.00in /  0mm 0 W/m2
03:16 41.5 °F /  5.3 °C 32.1 °F /  0.1 °C 30.11in /  1019.5hPa SSE 3.0mph /  4.8km/h 3.0mph /  4.8km/h 69% 0.00in /  0mm 0 W/m2
03:22 41.8 °F /  5.4 °C 32.0 °F /  0 °C 30.11in /  1019.5hPa SE 2.0mph /  3.2km/h 3.0mph /  4.8km/h 68% 0.00in /  0mm 0 W/m2
03:28 41.6 °F /  5.3 °C 31.8 °F /  -0.1 °C 30.11in /  1019.5hPa SSE 2.0mph /  3.2km/h 5.0mph /  8km/h 68% 0.00in /  0mm 0 W/m2
03:36 41.7 °F /  5.4 °C 31.9 °F /  -0.1 °C 30.11in /  1019.5hPa SSE 2.0mph /  3.2km/h 2.0mph /  3.2km/h 68% 0.00in /  0mm 0 W/m2
03:43 41.8 °F /  5.4 °C 32.0 °F /  0 °C 30.11in /  1019.5hPa South 2.0mph /  3.2km/h 3.0mph /  4.8km/h 68% 0.00in /  0mm 0 W/m2
03:50 42.3 °F /  5.7 °C 32.1 °F /  0.1 °C 30.11in /  1019.5hPa SSW 3.0mph /  4.8km/h 3.0mph /  4.8km/h 67% 0.00in /  0mm 0 W/m2
03:55 42.7 °F /  5.9 °C 32.1 °F /  0.1 °C 30.11in /  1019.5hPa SSE 3.0mph /  4.8km/h 3.0mph /  4.8km/h 66% 0.00in /  0mm 0 W/m2
04:02 42.6 °F /  5.9 °C 32.0 °F /  0 °C 30.11in /  1019.5hPa SSW 2.0mph /  3.2km/h 4.0mph /  6.4km/h 66% 0.00in /  0mm 0 W/m2
04:08 42.6 °F /  5.9 °C 32.0 °F /  0 °C 30.11in /  1019.5hPa SSW 2.0mph /  3.2km/h 4.0mph /  6.4km/h 66% 0.00in /  0mm 0 W/m2
04:14 42.7 °F /  5.9 °C 32.1 °F /  0.1 °C 30.13in /  1020.2hPa SSW 2.0mph /  3.2km/h 2.0mph /  3.2km/h 66% 0.00in /  0mm 0 W/m2
04:19 42.7 °F /  5.9 °C 32.1 °F /  0.1 °C 30.12in /  1019.9hPa SSW 1.0mph /  1.6km/h 1.0mph /  1.6km/h 66% 0.00in /  0mm 0 W/m2
04:26 42.1 °F /  5.6 °C 31.9 °F /  -0.1 °C 30.12in /  1019.9hPa Calm   1.0mph /  1.6km/h 67% 0.00in /  0mm 0 W/m2
04:32 41.4 °F /  5.2 °C 31.6 °F /  -0.2 °C 30.12in /  1019.9hPa SSW 1.0mph /  1.6km/h 2.0mph /  3.2km/h 68% 0.00in /  0mm 0 W/m2
04:38 41.3 °F /  5.2 °C 31.9 °F /  -0.1 °C 30.12in /  1019.9hPa SSW 1.0mph /  1.6km/h 2.0mph /  3.2km/h 69% 0.00in /  0mm 0 W/m2
04:43 40.9 °F /  4.9 °C 32.2 °F /  0.1 °C 30.13in /  1020.2hPa SSW 1.0mph /  1.6km/h 1.0mph /  1.6km/h 71% 0.00in /  0mm 0 W/m2
04:49 40.5 °F /  4.7 °C 32.9 °F /  0.5 °C 30.13in /  1020.2hPa Calm     74% 0.00in /  0mm 0 W/m2
04:56 39.2 °F /  4 °C 32.3 °F /  0.2 °C 30.12in /  1019.9hPa Calm   2.0mph /  3.2km/h 76% 0.00in /  0mm 0 W/m2
05:08 40.1 °F /  4.5 °C 34.4 °F /  1.3 °C 30.12in /  1019.9hPa SE 2.0mph /  3.2km/h 3.0mph /  4.8km/h 80% 0.00in /  0mm 0 W/m2
05:13 40.3 °F /  4.6 °C 34.3 °F /  1.3 °C 30.13in /  1020.2hPa SE 2.0mph /  3.2km/h 3.0mph /  4.8km/h 79% 0.00in /  0mm 0 W/m2
05:20 40.5 °F /  4.7 °C 33.9 °F /  1.1 °C 30.13in /  1020.2hPa SE 1.0mph /  1.6km/h 1.0mph /  1.6km/h 77% 0.00in /  0mm 0 W/m2
05:35 40.3 °F /  4.6 °C 34.0 °F /  1.1 °C 30.12in /  1019.9hPa SE 3.0mph /  4.8km/h 3.0mph /  4.8km/h 78% 0.00in /  0mm 0 W/m2
05:42 40.4 °F /  4.7 °C 33.8 °F /  1 °C 30.12in /  1019.9hPa SE 1.0mph /  1.6km/h 2.0mph /  3.2km/h 77% 0.00in /  0mm 0 W/m2
05:48 40.3 °F /  4.6 °C 33.7 °F /  0.9 °C 30.11in /  1019.5hPa SE 1.0mph /  1.6km/h 5.0mph /  8km/h 77% 0.00in /  0mm 0 W/m2
05:54 40.9 °F /  4.9 °C 33.9 °F /  1.1 °C 30.13in /  1020.2hPa SSE 1.0mph /  1.6km/h 5.0mph /  8km/h 76% 0.00in /  0mm 0 W/m2
05:59 41.5 °F /  5.3 °C 33.5 °F /  0.8 °C 30.13in /  1020.2hPa South 3.0mph /  4.8km/h 3.0mph /  4.8km/h 73% 0.00in /  0mm 0 W/m2
06:22 42.1 °F /  5.6 °C 33.4 °F /  0.8 °C 30.11in /  1019.5hPa SSE 3.0mph /  4.8km/h 5.0mph /  8km/h 71% 0.00in /  0mm 0 W/m2
06:28 42.4 °F /  5.8 °C 33.7 °F /  0.9 °C 30.13in /  1020.2hPa South 3.0mph /  4.8km/h 5.0mph /  8km/h 71% 0.00in /  0mm 0 W/m2
06:33 42.5 °F /  5.8 °C 33.4 °F /  0.8 °C 30.13in /  1020.2hPa South 2.0mph /  3.2km/h 3.0mph /  4.8km/h 70% 0.00in /  0mm 0 W/m2
06:39 42.7 °F /  5.9 °C 33.6 °F /  0.9 °C 30.13in /  1020.2hPa South 1.0mph /  1.6km/h 1.0mph /  1.6km/h 70% 0.00in /  0mm 0 W/m2
06:46 42.3 °F /  5.7 °C 33.2 °F /  0.7 °C 30.12in /  1019.9hPa South 1.0mph /  1.6km/h 1.0mph /  1.6km/h 70% 0.00in /  0mm 0 W/m2
06:52 41.8 °F /  5.4 °C 33.4 °F /  0.8 °C 30.13in /  1020.2hPa Calm     72% 0.00in /  0mm 0 W/m2
06:58 41.4 °F /  5.2 °C 33.4 °F /  0.8 °C 30.13in /  1020.2hPa Calm   1.0mph /  1.6km/h 73% 0.00in /  0mm 0 W/m2
07:04 40.3 °F /  4.6 °C 33.3 °F /  0.7 °C 30.13in /  1020.2hPa Calm   1.0mph /  1.6km/h 76% 0.00in /  0mm 0 W/m2
07:10 39.9 °F /  4.4 °C 33.9 °F /  1.1 °C 30.12in /  1019.9hPa South 1.0mph /  1.6km/h 1.0mph /  1.6km/h 79% 0.00in /  0mm 0 W/m2
07:15 39.7 °F /  4.3 °C 34.0 °F /  1.1 °C 30.13in /  1020.2hPa South 1.0mph /  1.6km/h 1.0mph /  1.6km/h 80% 0.00in /  0mm 0 W/m2
07:22 39.7 °F /  4.3 °C 34.0 °F /  1.1 °C 30.13in /  1020.2hPa Calm     80% 0.00in /  0mm 0 W/m2
07:28 38.7 °F /  3.7 °C 33.4 °F /  0.8 °C 30.13in /  1020.2hPa Calm     81% 0.00in /  0mm 0 W/m2
07:40 38.1 °F /  3.4 °C 33.4 °F /  0.8 °C 30.13in /  1020.2hPa Calm     83% 0.00in /  0mm 0 W/m2
07:45 38.0 °F /  3.3 °C 33.6 °F /  0.9 °C 30.13in /  1020.2hPa Calm   1.0mph /  1.6km/h 84% 0.00in /  0mm 0 W/m2
07:52 39.6 °F /  4.2 °C 35.2 °F /  1.8 °C 30.13in /  1020.2hPa SE 1.0mph /  1.6km/h 2.0mph /  3.2km/h 84% 0.00in /  0mm 0 W/m2
07:58 41.1 °F /  5.1 °C 35.7 °F /  2.1 °C 30.13in /  1020.2hPa SE 2.0mph /  3.2km/h 3.0mph /  4.8km/h 81% 0.00in /  0mm 5 W/m2
08:03 42.4 °F /  5.8 °C 36.0 °F /  2.2 °C 30.13in /  1020.2hPa SE 2.0mph /  3.2km/h 3.0mph /  4.8km/h 78% 0.00in /  0mm 7 W/m2
08:15 42.7 °F /  5.9 °C 35.3 °F /  1.8 °C 30.13in /  1020.2hPa SE 2.0mph /  3.2km/h 4.0mph /  6.4km/h 75% 0.00in /  0mm 12 W/m2
08:22 43.0 °F /  6.1 °C 35.6 °F /  2 °C 30.13in /  1020.2hPa SE 2.0mph /  3.2km/h 2.0mph /  3.2km/h 75% 0.00in /  0mm 18 W/m2
08:28 43.2 °F /  6.2 °C 35.5 °F /  1.9 °C 30.13in /  1020.2hPa ESE 1.0mph /  1.6km/h 2.0mph /  3.2km/h 74% 0.00in /  0mm 19 W/m2
08:33 42.6 °F /  5.9 °C 34.9 °F /  1.6 °C 30.13in /  1020.2hPa ESE 1.0mph /  1.6km/h 1.0mph /  1.6km/h 74% 0.00in /  0mm 19 W/m2
08:39 42.4 °F /  5.8 °C 35.0 °F /  1.7 °C 30.13in /  1020.2hPa Calm   1.0mph /  1.6km/h 75% 0.00in /  0mm 25 W/m2
08:46 42.2 °F /  5.7 °C 35.2 °F /  1.8 °C 30.13in /  1020.2hPa Calm   1.0mph /  1.6km/h 76% 0.00in /  0mm 33 W/m2
08:52 42.1 °F /  5.6 °C 35.1 °F /  1.7 °C 30.14in /  1020.5hPa Calm     76% 0.00in /  0mm 26 W/m2
09:00 42.2 °F /  5.7 °C 35.5 °F /  1.9 °C 30.14in /  1020.5hPa Calm     77% 0.00in /  0mm 40 W/m2
09:06 42.1 °F /  5.6 °C 35.4 °F /  1.9 °C 30.14in /  1020.5hPa Calm     77% 0.00in /  0mm 65 W/m2
09:12 42.3 °F /  5.7 °C 35.6 °F /  2 °C 30.14in /  1020.5hPa Calm     77% 0.00in /  0mm 79 W/m2
09:18 42.6 °F /  5.9 °C 35.9 °F /  2.2 °C 30.14in /  1020.5hPa Calm   2.0mph /  3.2km/h 77% 0.00in /  0mm 74 W/m2
09:23 43.5 °F /  6.4 °C 36.4 °F /  2.4 °C 30.13in /  1020.2hPa ESE 1.0mph /  1.6km/h 3.0mph /  4.8km/h 76% 0.00in /  0mm 83 W/m2
09:36 44.6 °F /  7 °C 36.5 °F /  2.5 °C 30.14in /  1020.5hPa ESE 1.0mph /  1.6km/h 3.0mph /  4.8km/h 73% 0.00in /  0mm 79 W/m2
09:42 45.1 °F /  7.3 °C 36.3 °F /  2.4 °C 30.14in /  1020.5hPa SSE 1.0mph /  1.6km/h 1.0mph /  1.6km/h 71% 0.00in /  0mm 77 W/m2
09:59 45.7 °F /  7.6 °C 36.5 °F /  2.5 °C 30.14in /  1020.5hPa SE 1.0mph /  1.6km/h 1.0mph /  1.6km/h 70% 0.00in /  0mm 104 W/m2
10:05 45.6 °F /  7.6 °C 36.4 °F /  2.4 °C 30.14in /  1020.5hPa Calm   2.0mph /  3.2km/h 70% 0.00in /  0mm 137 W/m2
10:12 46.1 °F /  7.8 °C 36.5 °F /  2.5 °C 30.14in /  1020.5hPa SSE 1.0mph /  1.6km/h 1.0mph /  1.6km/h 69% 0.00in /  0mm 172 W/m2
10:18 46.8 °F /  8.2 °C 36.8 °F /  2.7 °C 30.14in /  1020.5hPa SSE 2.0mph /  3.2km/h 4.0mph /  6.4km/h 68% 0.00in /  0mm 167 W/m2
10:22 47.1 °F /  8.4 °C 36.7 °F /  2.6 °C 30.14in /  1020.5hPa SE 2.0mph /  3.2km/h 3.0mph /  4.8km/h 67% 0.00in /  0mm 243 W/m2
10:28 47.8 °F /  8.8 °C 37.0 °F /  2.8 °C 30.14in /  1020.5hPa SE 3.0mph /  4.8km/h 5.0mph /  8km/h 66% 0.00in /  0mm 243 W/m2
10:34 48.1 °F /  8.9 °C 36.9 °F /  2.7 °C 30.14in /  1020.5hPa South 3.0mph /  4.8km/h 4.0mph /  6.4km/h 65% 0.00in /  0mm 220 W/m2
10:46 49.0 °F /  9.4 °C 37.3 °F /  2.9 °C 30.13in /  1020.2hPa SSE 3.0mph /  4.8km/h 5.0mph /  8km/h 64% 0.00in /  0mm 265 W/m2
10:52 49.3 °F /  9.6 °C 37.6 °F /  3.1 °C 30.13in /  1020.2hPa SSE 3.0mph /  4.8km/h 5.0mph /  8km/h 64% 0.00in /  0mm 225 W/m2
10:58 49.4 °F /  9.7 °C 37.7 °F /  3.2 °C 30.13in /  1020.2hPa SE 3.0mph /  4.8km/h 5.0mph /  8km/h 64% 0.00in /  0mm 185 W/m2
11:03 49.2 °F /  9.6 °C 37.5 °F /  3.1 °C 30.13in /  1020.2hPa SSE 4.0mph /  6.4km/h 5.0mph /  8km/h 64% 0.00in /  0mm 144 W/m2
11:10 49.6 °F /  9.8 °C 37.9 °F /  3.3 °C 30.13in /  1020.2hPa SSE 3.0mph /  4.8km/h 3.0mph /  4.8km/h 64% 0.00in /  0mm 169 W/m2
11:15 49.7 °F /  9.8 °C 38.0 °F /  3.3 °C 30.12in /  1019.9hPa SSE 3.0mph /  4.8km/h 5.0mph /  8km/h 64% 0.00in /  0mm 148 W/m2
11:22 49.7 °F /  9.8 °C 38.0 °F /  3.3 °C 30.12in /  1019.9hPa SSE 2.0mph /  3.2km/h 3.0mph /  4.8km/h 64% 0.00in /  0mm 142 W/m2
11:30 49.9 °F /  9.9 °C 38.2 °F /  3.4 °C 30.11in /  1019.5hPa South 3.0mph /  4.8km/h 3.0mph /  4.8km/h 64% 0.00in /  0mm 141 W/m2
11:35 50.2 °F /  10.1 °C 38.5 °F /  3.6 °C 30.11in /  1019.5hPa SE 3.0mph /  4.8km/h 5.0mph /  8km/h 64% 0.00in /  0mm 144 W/m2
11:43 50.5 °F /  10.3 °C 38.4 °F /  3.6 °C 30.11in /  1019.5hPa SW 3.0mph /  4.8km/h 6.0mph /  9.7km/h 63% 0.00in /  0mm 160 W/m2
11:49 50.8 °F /  10.4 °C 39.1 °F /  3.9 °C 30.11in /  1019.5hPa South 3.0mph /  4.8km/h 3.0mph /  4.8km/h 64% 0.00in /  0mm 160 W/m2
11:56 51.1 °F /  10.6 °C 38.9 °F /  3.8 °C 30.10in /  1019.2hPa SSE 3.0mph /  4.8km/h 5.0mph /  8km/h 63% 0.00in /  0mm 179 W/m2
12:03 51.6 °F /  10.9 °C 39.4 °F /  4.1 °C 30.09in /  1018.8hPa SW 3.0mph /  4.8km/h 5.0mph /  8km/h 63% 0.00in /  0mm 260 W/m2
12:10 51.9 °F /  11.1 °C 39.3 °F /  4.1 °C 30.09in /  1018.8hPa South 3.0mph /  4.8km/h 4.0mph /  6.4km/h 62% 0.00in /  0mm 241 W/m2
12:15 52.2 °F /  11.2 °C 39.6 °F /  4.2 °C 30.09in /  1018.8hPa South 4.0mph /  6.4km/h 5.0mph /  8km/h 62% 0.00in /  0mm 253 W/m2
12:22 52.0 °F /  11.1 °C 39.4 °F /  4.1 °C 30.08in /  1018.5hPa South 5.0mph /  8km/h 5.0mph /  8km/h 62% 0.00in /  0mm 295 W/m2
12:33 52.6 °F /  11.4 °C 39.5 °F /  4.2 °C 30.08in /  1018.5hPa SE 4.0mph /  6.4km/h 4.0mph /  6.4km/h 61% 0.00in /  0mm 260 W/m2
12:40 52.7 °F /  11.5 °C 39.6 °F /  4.2 °C 30.07in /  1018.2hPa SSE 4.0mph /  6.4km/h 7.0mph /  11.3km/h 61% 0.00in /  0mm 244 W/m2
12:45 52.8 °F /  11.6 °C 39.7 °F /  4.3 °C 30.08in /  1018.5hPa SSE 5.0mph /  8km/h 9.0mph /  14.5km/h 61% 0.00in /  0mm 250 W/m2
12:52 53.1 °F /  11.7 °C 40.0 °F /  4.4 °C 30.07in /  1018.2hPa SE 4.0mph /  6.4km/h 4.0mph /  6.4km/h 61% 0.00in /  0mm 232 W/m2
12:58 53.0 °F /  11.7 °C 39.9 °F /  4.4 °C 30.07in /  1018.2hPa South 3.0mph /  4.8km/h 4.0mph /  6.4km/h 61% 0.00in /  0mm 244 W/m2
13:06 53.2 °F /  11.8 °C 40.5 °F /  4.7 °C 30.07in /  1018.2hPa SSE 4.0mph /  6.4km/h 7.0mph /  11.3km/h 62% 0.00in /  0mm 272 W/m2
13:12 53.7 °F /  12.1 °C 40.6 °F /  4.8 °C 30.06in /  1017.8hPa SSE 5.0mph /  8km/h 5.0mph /  8km/h 61% 0.00in /  0mm 209 W/m2
13:18 53.5 °F /  11.9 °C 40.4 °F /  4.7 °C 30.06in /  1017.8hPa South 4.0mph /  6.4km/h 7.0mph /  11.3km/h 61% 0.00in /  0mm 185 W/m2
13:24 53.7 °F /  12.1 °C 40.6 °F /  4.8 °C 30.06in /  1017.8hPa South 4.0mph /  6.4km/h 5.0mph /  8km/h 61% 0.00in /  0mm 179 W/m2
13:29 53.7 °F /  12.1 °C 41.0 °F /  5 °C 30.06in /  1017.8hPa SSE 4.0mph /  6.4km/h 5.0mph /  8km/h 62% 0.00in /  0mm 165 W/m2
13:35 53.8 °F /  12.1 °C 41.1 °F /  5.1 °C 30.06in /  1017.8hPa South 4.0mph /  6.4km/h 5.0mph /  8km/h 62% 0.00in /  0mm 158 W/m2
13:42 53.7 °F /  12.1 °C 41.0 °F /  5 °C 30.06in /  1017.8hPa SSE 3.0mph /  4.8km/h 3.0mph /  4.8km/h 62% 0.00in /  0mm 144 W/m2
13:49 53.6 °F /  12 °C 40.9 °F /  4.9 °C 30.05in /  1017.5hPa South 3.0mph /  4.8km/h 3.0mph /  4.8km/h 62% 0.00in /  0mm 127 W/m2
13:56 53.5 °F /  11.9 °C 40.8 °F /  4.9 °C 30.06in /  1017.8hPa South 3.0mph /  4.8km/h 3.0mph /  4.8km/h 62% 0.00in /  0mm 102 W/m2
14:02 53.3 °F /  11.8 °C 40.6 °F /  4.8 °C 30.05in /  1017.5hPa SE 2.0mph /  3.2km/h 2.0mph /  3.2km/h 62% 0.00in /  0mm 86 W/m2
14:15 53.0 °F /  11.7 °C 41.1 °F /  5.1 °C 30.05in /  1017.5hPa SE 3.0mph /  4.8km/h 3.0mph /  4.8km/h 64% 0.00in /  0mm 91 W/m2
14:22 53.5 °F /  11.9 °C 41.6 °F /  5.3 °C 30.04in /  1017.2hPa SSW 3.0mph /  4.8km/h 7.0mph /  11.3km/h 64% 0.00in /  0mm 86 W/m2
14:28 54.0 °F /  12.2 °C 42.1 °F /  5.6 °C 30.04in /  1017.2hPa South 4.0mph /  6.4km/h 6.0mph /  9.7km/h 64% 0.00in /  0mm 72 W/m2
14:33 54.1 °F /  12.3 °C 41.8 °F /  5.4 °C 30.04in /  1017.2hPa SSW 5.0mph /  8km/h 8.0mph /  12.9km/h 63% 0.00in /  0mm 79 W/m2
14:40 53.9 °F /  12.2 °C 42.0 °F /  5.6 °C 30.04in /  1017.2hPa SE 4.0mph /  6.4km/h 5.0mph /  8km/h 64% 0.00in /  0mm 93 W/m2
14:46 54.2 °F /  12.3 °C 42.3 °F /  5.7 °C 30.04in /  1017.2hPa SW 5.0mph /  8km/h 5.0mph /  8km/h 64% 0.00in /  0mm 100 W/m2
14:52 54.2 °F /  12.3 °C 42.3 °F /  5.7 °C 30.04in /  1017.2hPa SSW 5.0mph /  8km/h 5.0mph /  8km/h 64% 0.00in /  0mm 86 W/m2
14:58 54.2 °F /  12.3 °C 42.3 °F /  5.7 °C 30.03in /  1016.8hPa South 4.0mph /  6.4km/h 5.0mph /  8km/h 64% 0.00in /  0mm 90 W/m2
15:06 54.4 °F /  12.4 °C 42.5 °F /  5.8 °C 30.03in /  1016.8hPa SSW 5.0mph /  8km/h 8.0mph /  12.9km/h 64% 0.00in /  0mm 67 W/m2
15:12 54.1 °F /  12.3 °C 42.2 °F /  5.7 °C 30.03in /  1016.8hPa SSE 5.0mph /  8km/h 6.0mph /  9.7km/h 64% 0.00in /  0mm 67 W/m2
15:18 53.8 °F /  12.1 °C 42.3 °F /  5.7 °C 30.03in /  1016.8hPa SW 2.0mph /  3.2km/h 6.0mph /  9.7km/h 65% 0.00in /  0mm 81 W/m2
15:24 54.0 °F /  12.2 °C 42.9 °F /  6.1 °C 30.03in /  1016.8hPa WSW 2.0mph /  3.2km/h 2.0mph /  3.2km/h 66% 0.00in /  0mm 65 W/m2
15:29 54.1 °F /  12.3 °C 42.6 °F /  5.9 °C 30.03in /  1016.8hPa SSE 3.0mph /  4.8km/h 3.0mph /  4.8km/h 65% 0.00in /  0mm 72 W/m2
15:36 53.7 °F /  12.1 °C 42.6 °F /  5.9 °C 30.03in /  1016.8hPa South 3.0mph /  4.8km/h 3.0mph /  4.8km/h 66% 0.00in /  0mm 51 W/m2
15:42 53.5 °F /  11.9 °C 42.4 °F /  5.8 °C 30.03in /  1016.8hPa South 2.0mph /  3.2km/h 3.0mph /  4.8km/h 66% 0.00in /  0mm 44 W/m2
15:48 53.8 °F /  12.1 °C 42.7 °F /  5.9 °C 30.03in /  1016.8hPa South 3.0mph /  4.8km/h 3.0mph /  4.8km/h 66% 0.00in /  0mm 46 W/m2
15:53 53.6 °F /  12 °C 42.5 °F /  5.8 °C 30.03in /  1016.8hPa SE 2.0mph /  3.2km/h 4.0mph /  6.4km/h 66% 0.00in /  0mm 44 W/m2
16:00 53.7 °F /  12.1 °C 43.0 °F /  6.1 °C 30.03in /  1016.8hPa SE 1.0mph /  1.6km/h 3.0mph /  4.8km/h 67% 0.00in /  0mm 39 W/m2
16:06 53.7 °F /  12.1 °C 43.4 °F /  6.3 °C 30.03in /  1016.8hPa SSE 2.0mph /  3.2km/h 4.0mph /  6.4km/h 68% 0.00in /  0mm 28 W/m2
16:12 53.7 °F /  12.1 °C 43.0 °F /  6.1 °C 30.03in /  1016.8hPa South 3.0mph /  4.8km/h 3.0mph /  4.8km/h 67% 0.00in /  0mm 23 W/m2
16:18 53.5 °F /  11.9 °C 43.2 °F /  6.2 °C 30.03in /  1016.8hPa SSE 3.0mph /  4.8km/h 4.0mph /  6.4km/h 68% 0.00in /  0mm 21 W/m2
16:23 53.8 °F /  12.1 °C 43.9 °F /  6.6 °C 30.03in /  1016.8hPa SE 3.0mph /  4.8km/h 5.0mph /  8km/h 69% 0.00in /  0mm 18 W/m2
16:30 54.2 °F /  12.3 °C 43.9 °F /  6.6 °C 30.03in /  1016.8hPa South 4.0mph /  6.4km/h 4.0mph /  6.4km/h 68% 0.00in /  0mm 12 W/m2
16:35 54.1 °F /  12.3 °C 43.8 °F /  6.6 °C 30.03in /  1016.8hPa South 5.0mph /  8km/h 5.0mph /  8km/h 68% 0.00in /  0mm 9 W/m2
16:42 53.8 °F /  12.1 °C 43.9 °F /  6.6 °C 30.02in /  1016.5hPa SSE 4.0mph /  6.4km/h 4.0mph /  6.4km/h 69% 0.00in /  0mm 0 W/m2
16:48 53.2 °F /  11.8 °C 43.3 °F /  6.3 °C 30.01in /  1016.1hPa SSE 3.0mph /  4.8km/h 6.0mph /  9.7km/h 69% 0.00in /  0mm 0 W/m2
16:53 53.2 °F /  11.8 °C 43.7 °F /  6.5 °C 30.01in /  1016.1hPa SSE 3.0mph /  4.8km/h 4.0mph /  6.4km/h 70% 0.00in /  0mm 0 W/m2
17:05 53.2 °F /  11.8 °C 43.7 °F /  6.5 °C 30.01in /  1016.1hPa South 4.0mph /  6.4km/h 6.0mph /  9.7km/h 70% 0.00in /  0mm 0 W/m2
17:12 53.2 °F /  11.8 °C 44.0 °F /  6.7 °C 30.01in /  1016.1hPa SSE 3.0mph /  4.8km/h 4.0mph /  6.4km/h 71% 0.00in /  0mm 0 W/m2
17:18 53.3 °F /  11.8 °C 44.5 °F /  6.9 °C 30.01in /  1016.1hPa SSE 3.0mph /  4.8km/h 4.0mph /  6.4km/h 72% 0.00in /  0mm 0 W/m2
17:23 53.5 °F /  11.9 °C 44.7 °F /  7.1 °C 30.01in /  1016.1hPa SSW 3.0mph /  4.8km/h 4.0mph /  6.4km/h 72% 0.00in /  0mm 0 W/m2
17:30 53.2 °F /  11.8 °C 44.4 °F /  6.9 °C 30.00in /  1015.8hPa SSW 3.0mph /  4.8km/h 6.0mph /  9.7km/h 72% 0.00in /  0mm 0 W/m2
17:35 53.4 °F /  11.9 °C 45.0 °F /  7.2 °C 30.00in /  1015.8hPa SSW 3.0mph /  4.8km/h 6.0mph /  9.7km/h 73% 0.00in /  0mm 0 W/m2
17:42 53.4 °F /  11.9 °C 45.0 °F /  7.2 °C 30.00in /  1015.8hPa South 4.0mph /  6.4km/h 9.0mph /  14.5km/h 73% 0.00in /  0mm 0 W/m2
17:48 53.7 °F /  12.1 °C 45.6 °F /  7.6 °C 30.00in /  1015.8hPa South 5.0mph /  8km/h 9.0mph /  14.5km/h 74% 0.00in /  0mm 0 W/m2
17:55 53.8 °F /  12.1 °C 45.7 °F /  7.6 °C 29.99in /  1015.5hPa SSE 6.0mph /  9.7km/h 9.0mph /  14.5km/h 74% 0.00in /  0mm 0 W/m2
18:02 53.9 °F /  12.2 °C 46.2 °F /  7.9 °C 29.98in /  1015.1hPa South 6.0mph /  9.7km/h 8.0mph /  12.9km/h 75% 0.00in /  0mm 0 W/m2
18:08 54.1 °F /  12.3 °C 46.0 °F /  7.8 °C 29.98in /  1015.1hPa South 7.0mph /  11.3km/h 8.0mph /  12.9km/h 74% 0.00in /  0mm 0 W/m2
18:14 53.8 °F /  12.1 °C 45.7 °F /  7.6 °C 29.98in /  1015.1hPa SSE 7.0mph /  11.3km/h 13.0mph /  20.9km/h 74% 0.00in /  0mm 0 W/m2
18:18 53.9 °F /  12.2 °C 46.2 °F /  7.9 °C 29.98in /  1015.1hPa South 7.0mph /  11.3km/h 13.0mph /  20.9km/h 75% 0.00in /  0mm 0 W/m2
18:25 54.1 °F /  12.3 °C 46.0 °F /  7.8 °C 29.98in /  1015.1hPa SSW 9.0mph /  14.5km/h 10.0mph /  16.1km/h 74% 0.00in /  0mm 0 W/m2
18:32 53.9 °F /  12.2 °C 46.2 °F /  7.9 °C 29.98in /  1015.1hPa South 8.0mph /  12.9km/h 9.0mph /  14.5km/h 75% 0.00in /  0mm 0 W/m2
18:38 54.0 °F /  12.2 °C 46.3 °F /  7.9 °C 29.98in /  1015.1hPa SSE 8.0mph /  12.9km/h 16.0mph /  25.7km/h 75% 0.00in /  0mm 0 W/m2
18:40 54.0 °F /  12.2 °C 46.3 °F /  7.9 °C 29.98in /  1015.1hPa SSW 8.0mph /  12.9km/h 8.0mph /  12.9km/h 75% 0.00in /  0mm 0 W/m2
18:50 53.7 °F /  12.1 °C 46.3 °F /  7.9 °C 29.99in /  1015.5hPa SW 5.0mph /  8km/h 9.0mph /  14.5km/h 76% 0.00in /  0mm 0 W/m2
18:52 54.0 °F /  12.2 °C 47.0 °F /  8.3 °C 29.98in /  1015.1hPa South 6.0mph /  9.7km/h 9.0mph /  14.5km/h 77% 0.00in /  0mm 0 W/m2
18:58 54.0 °F /  12.2 °C 46.6 °F /  8.1 °C 29.98in /  1015.1hPa SSW 7.0mph /  11.3km/h 16.0mph /  25.7km/h 76% 0.00in /  0mm 0 W/m2
19:04 54.0 °F /  12.2 °C 46.6 °F /  8.1 °C 29.98in /  1015.1hPa SSE 7.0mph /  11.3km/h 8.0mph /  12.9km/h 76% 0.00in /  0mm 0 W/m2
19:10 53.8 °F /  12.1 °C 46.8 °F /  8.2 °C 29.98in /  1015.1hPa SSW 6.0mph /  9.7km/h 9.0mph /  14.5km/h 77% 0.00in /  0mm 0 W/m2
19:15 54.0 °F /  12.2 °C 47.0 °F /  8.3 °C 29.98in /  1015.1hPa SW 6.0mph /  9.7km/h 9.0mph /  14.5km/h 77% 0.00in /  0mm 0 W/m2
19:18 53.9 °F /  12.2 °C 46.5 °F /  8.1 °C 29.98in /  1015.1hPa South 6.0mph /  9.7km/h 9.0mph /  14.5km/h 76% 0.00in /  0mm 0 W/m2
19:23 54.1 °F /  12.3 °C 47.0 °F /  8.3 °C 29.98in /  1015.1hPa South 6.0mph /  9.7km/h 7.0mph /  11.3km/h 77% 0.00in /  0mm 0 W/m2
19:30 54.2 °F /  12.3 °C 47.1 °F /  8.4 °C 29.97in /  1014.8hPa South 6.0mph /  9.7km/h 6.0mph /  9.7km/h 77% 0.00in /  0mm 0 W/m2
19:36 54.0 °F /  12.2 °C 47.3 °F /  8.5 °C 29.97in /  1014.8hPa SSW 6.0mph /  9.7km/h 7.0mph /  11.3km/h 78% 0.00in /  0mm 0 W/m2
19:42 54.2 °F /  12.3 °C 47.1 °F /  8.4 °C 29.97in /  1014.8hPa SSW 6.0mph /  9.7km/h 6.0mph /  9.7km/h 77% 0.00in /  0mm 0 W/m2
19:48 54.2 °F /  12.3 °C 47.5 °F /  8.6 °C 29.97in /  1014.8hPa SSE 6.0mph /  9.7km/h 10.0mph /  16.1km/h 78% 0.00in /  0mm 0 W/m2
19:54 54.3 °F /  12.4 °C 47.2 °F /  8.4 °C 29.96in /  1014.4hPa SSE 7.0mph /  11.3km/h 7.0mph /  11.3km/h 77% 0.00in /  0mm 0 W/m2
19:59 54.2 °F /  12.3 °C 47.5 °F /  8.6 °C 29.97in /  1014.8hPa SSE 7.0mph /  11.3km/h 7.0mph /  11.3km/h 78% 0.00in /  0mm 0 W/m2
20:05 54.3 °F /  12.4 °C 47.2 °F /  8.4 °C 29.97in /  1014.8hPa SSE 7.0mph /  11.3km/h 8.0mph /  12.9km/h 77% 0.00in /  0mm 0 W/m2
20:12 54.2 °F /  12.3 °C 47.1 °F /  8.4 °C 29.97in /  1014.8hPa South 7.0mph /  11.3km/h 7.0mph /  11.3km/h 77% 0.00in /  0mm 0 W/m2
20:18 53.9 °F /  12.2 °C 46.9 °F /  8.3 °C 29.97in /  1014.8hPa SSW 6.0mph /  9.7km/h 7.0mph /  11.3km/h 77% 0.00in /  0mm 0 W/m2
20:24 53.9 °F /  12.2 °C 47.2 °F /  8.4 °C 29.97in /  1014.8hPa SW 5.0mph /  8km/h 7.0mph /  11.3km/h 78% 0.00in /  0mm 0 W/m2
20:28 54.1 °F /  12.3 °C 47.4 °F /  8.6 °C 29.97in /  1014.8hPa SSE 5.0mph /  8km/h 7.0mph /  11.3km/h 78% 0.00in /  0mm 0 W/m2
20:33 53.8 °F /  12.1 °C 46.8 °F /  8.2 °C 29.96in /  1014.4hPa South 5.0mph /  8km/h 5.0mph /  8km/h 77% 0.00in /  0mm 0 W/m2
20:40 53.7 °F /  12.1 °C 47.3 °F /  8.5 °C 29.96in /  1014.4hPa SSE 4.0mph /  6.4km/h 4.0mph /  6.4km/h 79% 0.00in /  0mm 0 W/m2
20:46 54.2 °F /  12.3 °C 47.5 °F /  8.6 °C 29.96in /  1014.4hPa SSW 5.0mph /  8km/h 11.0mph /  17.7km/h 78% 0.00in /  0mm 0 W/m2
20:52 54.3 °F /  12.4 °C 47.6 °F /  8.7 °C 29.96in /  1014.4hPa South 5.0mph /  8km/h 5.0mph /  8km/h 78% 0.00in /  0mm 0 W/m2
20:58 54.3 °F /  12.4 °C 47.6 °F /  8.7 °C 29.95in /  1014.1hPa South 5.0mph /  8km/h 8.0mph /  12.9km/h 78% 0.00in /  0mm 0 W/m2
21:08 53.6 °F /  12 °C 46.9 °F /  8.3 °C 29.96in /  1014.4hPa SSE 3.0mph /  4.8km/h 5.0mph /  8km/h 78% 0.00in /  0mm 0 W/m2
21:13 53.4 °F /  11.9 °C 46.7 °F /  8.2 °C 29.96in /  1014.4hPa South 3.0mph /  4.8km/h 6.0mph /  9.7km/h 78% 0.00in /  0mm 0 W/m2
21:19 53.1 °F /  11.7 °C 46.4 °F /  8 °C 29.96in /  1014.4hPa South 3.0mph /  4.8km/h 3.0mph /  4.8km/h 78% 0.00in /  0mm 0 W/m2
21:32 52.7 °F /  11.5 °C 46.4 °F /  8 °C 29.96in /  1014.4hPa South 3.0mph /  4.8km/h 4.0mph /  6.4km/h 79% 0.00in /  0mm 0 W/m2
21:43 52.4 °F /  11.3 °C 46.4 °F /  8 °C 29.96in /  1014.4hPa SSW 2.0mph /  3.2km/h 2.0mph /  3.2km/h 80% 0.00in /  0mm 0 W/m2
21:50 52.6 °F /  11.4 °C 46.3 °F /  7.9 °C 29.96in /  1014.4hPa SSW 2.0mph /  3.2km/h 3.0mph /  4.8km/h 79% 0.00in /  0mm 0 W/m2
21:56 53.2 °F /  11.8 °C 47.2 °F /  8.4 °C 29.97in /  1014.8hPa SSW 3.0mph /  4.8km/h 3.0mph /  4.8km/h 80% 0.00in /  0mm 0 W/m2
22:02 53.8 °F /  12.1 °C 47.1 °F /  8.4 °C 29.97in /  1014.8hPa SSW 3.0mph /  4.8km/h 3.0mph /  4.8km/h 78% 0.00in /  0mm 0 W/m2
22:13 53.8 °F /  12.1 °C 47.1 °F /  8.4 °C 29.96in /  1014.4hPa SW 3.0mph /  4.8km/h 6.0mph /  9.7km/h 78% 0.00in /  0mm 0 W/m2
22:20 54.1 °F /  12.3 °C 47.4 °F /  8.6 °C 29.96in /  1014.4hPa SW 3.0mph /  4.8km/h 3.0mph /  4.8km/h 78% 0.00in /  0mm 0 W/m2
22:25 54.3 °F /  12.4 °C 47.6 °F /  8.7 °C 29.96in /  1014.4hPa South 4.0mph /  6.4km/h 7.0mph /  11.3km/h 78% 0.00in /  0mm 0 W/m2
22:32 54.5 °F /  12.5 °C 47.8 °F /  8.8 °C 29.95in /  1014.1hPa SSE 5.0mph /  8km/h 5.0mph /  8km/h 78% 0.00in /  0mm 0 W/m2
22:38 54.2 °F /  12.3 °C 47.8 °F /  8.8 °C 29.95in /  1014.1hPa SSW 5.0mph /  8km/h 8.0mph /  12.9km/h 79% 0.00in /  0mm 0 W/m2
22:44 53.9 °F /  12.2 °C 47.9 °F /  8.8 °C 29.94in /  1013.8hPa South 5.0mph /  8km/h 8.0mph /  12.9km/h 80% 0.00in /  0mm 0 W/m2
22:49 53.8 °F /  12.1 °C 48.1 °F /  8.9 °C 29.94in /  1013.8hPa SSW 5.0mph /  8km/h 5.0mph /  8km/h 81% 0.00in /  0mm 0 W/m2
22:56 53.7 °F /  12.1 °C 48.0 °F /  8.9 °C 29.93in /  1013.4hPa SSW 5.0mph /  8km/h 5.0mph /  8km/h 81% 0.04in /  1.02mm 0 W/m2
23:08 53.2 °F /  11.8 °C 48.2 °F /  9 °C 29.93in /  1013.4hPa SSE 3.0mph /  4.8km/h 6.0mph /  9.7km/h 83% 0.06in /  1.52mm 0 W/m2
23:14 52.9 °F /  11.6 °C 48.2 °F /  9 °C 29.93in /  1013.4hPa SSW 2.0mph /  3.2km/h 3.0mph /  4.8km/h 84% 0.05in /  1.27mm 0 W/m2
23:19 52.1 °F /  11.2 °C 47.7 °F /  8.7 °C 29.92in /  1013.1hPa SSE 3.0mph /  4.8km/h 3.0mph /  4.8km/h 85% 0.00in /  0mm 0 W/m2
23:26 52.2 °F /  11.2 °C 48.1 °F /  8.9 °C 29.92in /  1013.1hPa SSE 2.0mph /  3.2km/h 3.0mph /  4.8km/h 86% 0.00in /  0mm 0 W/m2
23:32 52.1 °F /  11.2 °C 48.0 °F /  8.9 °C 29.92in /  1013.1hPa SSE 1.0mph /  1.6km/h 1.0mph /  1.6km/h 86% 0.06in /  1.52mm 0 W/m2
23:38 51.7 °F /  10.9 °C 47.6 °F /  8.7 °C 29.91in /  1012.8hPa SSE 2.0mph /  3.2km/h 2.0mph /  3.2km/h 86% 0.06in /  1.52mm 0 W/m2
23:44 51.6 °F /  10.9 °C 47.9 °F /  8.8 °C 29.91in /  1012.8hPa SSE 2.0mph /  3.2km/h 2.0mph /  3.2km/h 87% 0.04in /  1.02mm 0 W/m2
23:50 51.7 °F /  10.9 °C 48.3 °F /  9.1 °C 29.90in /  1012.4hPa SSE 2.0mph /  3.2km/h 3.0mph /  4.8km/h 88% 0.00in /  0mm 0 W/m2
23:55 51.9 °F /  11.1 °C 48.5 °F /  9.2 °C 29.90in /  1012.4hPa SSE 2.0mph /  3.2km/h 3.0mph /  4.8km/h 88% 0.11in /  2.79mm 0 W/m2
Country Meadow, Clay, NY, USA
Compliments of Weather Underground - 2 mb